createdAt,value
2018-08-31T00:00:33.601Z,17.08
2018-08-31T00:03:02.417Z,17.08
2018-08-31T00:05:46.967Z,17.05
2018-08-31T00:10:37.570Z,17.08
2018-08-31T00:13:06.473Z,17.08
2018-08-31T00:15:34.969Z,17.09
2018-08-31T00:18:03.404Z,17.08
2018-08-31T00:20:32.134Z,17.04
2018-08-31T00:23:01.005Z,17.02
2018-08-31T00:26:06.913Z,17.01
2018-08-31T00:28:47.431Z,17.02
2018-08-31T00:31:37.698Z,17.00
2018-08-31T00:36:27.651Z,16.99
2018-08-31T00:41:25.498Z,16.96
2018-08-31T00:44:05.757Z,16.87
2018-08-31T00:46:34.453Z,16.84
2018-08-31T00:49:02.901Z,16.84
2018-08-31T00:51:31.613Z,16.86
2018-08-31T00:54:00.132Z,16.91
2018-08-31T00:56:28.557Z,16.93
2018-08-31T00:58:57.073Z,16.94
2018-08-31T01:01:25.603Z,16.95
2018-08-31T01:03:54.028Z,16.98
2018-08-31T01:06:22.797Z,17.03
2018-08-31T01:08:51.402Z,17.07
2018-08-31T01:11:19.969Z,17.11
2018-08-31T01:13:48.523Z,17.14
2018-08-31T01:16:17.396Z,17.18
2018-08-31T01:18:45.865Z,17.18
2018-08-31T01:21:14.512Z,17.18
2018-08-31T01:23:43.027Z,17.18
2018-08-31T01:26:11.800Z,17.18
2018-08-31T01:28:40.453Z,17.20
2018-08-31T01:31:08.936Z,17.06
2018-08-31T01:33:38.026Z,17.20
2018-08-31T01:36:06.690Z,17.19
2018-08-31T01:38:35.575Z,17.16
2018-08-31T01:41:04.053Z,17.13
2018-08-31T01:43:32.596Z,17.08
2018-08-31T01:46:01.113Z,17.05
2018-08-31T01:48:29.577Z,17.01
2018-08-31T01:51:03.313Z,16.98
2018-08-31T01:53:32.033Z,16.94
2018-08-31T01:56:00.552Z,16.88
2018-08-31T01:58:29.006Z,16.82
2018-08-31T02:00:57.597Z,16.77
2018-08-31T02:03:26.020Z,16.72
2018-08-31T02:05:54.494Z,16.67
2018-08-31T02:08:23.812Z,16.64
2018-08-31T02:10:52.243Z,16.63
2018-08-31T02:13:20.762Z,16.60
2018-08-31T02:15:49.284Z,16.61
2018-08-31T02:18:17.932Z,16.61
2018-08-31T02:20:46.360Z,16.61
2018-08-31T02:23:15.021Z,16.62
2018-08-31T02:25:43.824Z,16.62
2018-08-31T02:28:12.293Z,16.62
2018-08-31T02:30:41.008Z,16.63
2018-08-31T02:33:09.577Z,16.63
2018-08-31T02:35:38.049Z,16.63
2018-08-31T02:38:07.237Z,16.60
2018-08-31T02:40:36.394Z,16.60
2018-08-31T02:43:04.990Z,16.62
2018-08-31T02:45:34.210Z,16.64
2018-08-31T02:48:02.641Z,16.67
2018-08-31T02:50:31.098Z,16.66
2018-08-31T02:52:59.647Z,16.65
2018-08-31T02:55:28.085Z,16.63
2018-08-31T02:57:56.560Z,16.62
2018-08-31T03:00:25.404Z,16.61
2018-08-31T03:02:53.850Z,16.61
2018-08-31T03:05:22.495Z,16.62
2018-08-31T03:07:51.031Z,16.61
2018-08-31T03:10:20.005Z,16.60
2018-08-31T03:12:48.533Z,16.63
2018-08-31T03:15:17.425Z,16.64
2018-08-31T03:17:46.838Z,16.64
2018-08-31T03:20:15.410Z,16.65
2018-08-31T03:22:43.916Z,16.65
2018-08-31T03:25:12.352Z,16.65
2018-08-31T03:27:40.822Z,16.64
2018-08-31T03:30:09.841Z,16.66
2018-08-31T03:32:38.413Z,16.67
2018-08-31T03:35:07.095Z,16.67
2018-08-31T03:37:35.901Z,16.54
2018-08-31T03:40:04.425Z,16.69
2018-08-31T03:42:33.288Z,16.69
2018-08-31T03:45:01.950Z,16.68
2018-08-31T03:47:30.470Z,16.69
2018-08-31T03:49:58.961Z,16.69
2018-08-31T03:52:27.797Z,16.70
2018-08-31T03:54:56.281Z,16.70
2018-08-31T03:57:24.859Z,16.72
2018-08-31T03:59:53.764Z,16.73
2018-08-31T04:02:22.195Z,16.75
2018-08-31T04:04:50.797Z,16.75
2018-08-31T04:07:19.510Z,16.79
2018-08-31T04:09:48.033Z,16.79
2018-08-31T04:12:16.630Z,16.80
2018-08-31T04:14:45.581Z,16.80
2018-08-31T04:17:14.021Z,16.82
2018-08-31T04:19:42.946Z,16.80
2018-08-31T04:22:11.561Z,16.81
2018-08-31T04:24:39.985Z,16.83
2018-08-31T04:27:08.465Z,16.84
2018-08-31T04:29:36.970Z,16.84
2018-08-31T04:32:05.864Z,16.84
2018-08-31T04:34:34.537Z,16.84
2018-08-31T04:37:03.474Z,16.83
2018-08-31T04:39:31.929Z,16.83
2018-08-31T04:42:00.509Z,16.83
2018-08-31T04:44:29.497Z,16.83
2018-08-31T04:46:58.005Z,16.85
2018-08-31T04:49:26.474Z,16.85
2018-08-31T04:51:54.999Z,16.86
2018-08-31T04:54:23.439Z,16.85
2018-08-31T04:56:51.953Z,16.84
2018-08-31T04:59:20.680Z,16.83
2018-08-31T05:01:49.129Z,16.82
2018-08-31T05:04:17.789Z,16.79
2018-08-31T05:06:46.324Z,16.81
2018-08-31T05:09:14.755Z,16.81
2018-08-31T05:11:43.277Z,16.80
2018-08-31T05:14:12.197Z,16.80
2018-08-31T05:16:40.640Z,16.81
2018-08-31T05:19:09.152Z,16.81
2018-08-31T05:21:38.530Z,16.81
2018-08-31T05:24:07.120Z,16.79
2018-08-31T05:26:35.572Z,16.76
2018-08-31T05:29:04.150Z,16.75
2018-08-31T05:31:32.667Z,16.77
2018-08-31T05:34:01.366Z,16.75
2018-08-31T05:36:30.009Z,16.77
2018-08-31T05:38:58.497Z,16.81
2018-08-31T05:41:27.107Z,16.83
2018-08-31T05:43:55.781Z,16.83
2018-08-31T05:46:24.546Z,16.83
2018-08-31T05:48:53.010Z,16.87
2018-08-31T05:51:21.646Z,16.91
2018-08-31T05:53:50.240Z,16.90
2018-08-31T05:56:18.873Z,16.94
2018-08-31T05:58:47.589Z,16.95
2018-08-31T06:01:16.033Z,16.99
2018-08-31T06:03:44.533Z,17.01
2018-08-31T06:06:13.371Z,17.05
2018-08-31T06:08:42.035Z,17.06
2018-08-31T06:11:10.546Z,17.10
2018-08-31T06:13:39.393Z,17.15
2018-08-31T06:16:08.151Z,17.17
2018-08-31T06:18:37.107Z,17.17
2018-08-31T06:21:05.744Z,17.18
2018-08-31T06:23:34.189Z,17.22
2018-08-31T06:26:02.701Z,17.19
2018-08-31T06:28:31.248Z,17.17
2018-08-31T06:30:59.729Z,17.12
2018-08-31T06:33:28.192Z,17.11
2018-08-31T06:35:56.797Z,17.10
2018-08-31T06:38:25.485Z,17.08
2018-08-31T06:40:54.366Z,17.05
2018-08-31T06:43:22.773Z,17.03
2018-08-31T06:45:51.560Z,17.02
2018-08-31T06:48:20.326Z,16.84
2018-08-31T06:50:50.214Z,17.10
2018-08-31T06:53:19.126Z,17.07
2018-08-31T06:55:47.583Z,17.09
2018-08-31T06:58:16.193Z,17.11
2018-08-31T07:00:44.647Z,17.15
2018-08-31T07:03:13.201Z,17.19
2018-08-31T07:05:42.095Z,17.20
2018-08-31T07:08:10.522Z,17.21
2018-08-31T07:10:39.111Z,17.24
2018-08-31T07:13:07.846Z,17.30
2018-08-31T07:15:36.331Z,17.36
2018-08-31T07:18:04.868Z,17.39
2018-08-31T07:20:33.587Z,17.40
2018-08-31T07:23:02.402Z,17.39
2018-08-31T07:25:31.278Z,17.40
2018-08-31T07:28:00.288Z,17.44
2018-08-31T07:30:28.742Z,17.50
2018-08-31T07:32:57.193Z,17.56
2018-08-31T07:35:32.120Z,17.63
2018-08-31T07:38:00.700Z,17.68
2018-08-31T07:40:29.312Z,17.76
2018-08-31T07:42:57.908Z,17.79
2018-08-31T07:45:26.358Z,17.83
2018-08-31T07:47:54.865Z,17.89
2018-08-31T07:50:23.602Z,17.91
2018-08-31T07:52:52.061Z,17.90
2018-08-31T07:55:20.486Z,17.84
2018-08-31T07:57:49.090Z,17.82
2018-08-31T08:00:17.604Z,17.81
2018-08-31T08:02:46.051Z,17.69
2018-08-31T08:05:14.569Z,17.79
2018-08-31T08:07:43.023Z,17.86
2018-08-31T08:10:12.049Z,17.98
2018-08-31T08:12:40.547Z,18.12
2018-08-31T08:15:09.034Z,18.25
2018-08-31T08:17:37.485Z,18.36
2018-08-31T08:20:07.050Z,18.45
2018-08-31T08:22:35.994Z,18.56
2018-08-31T08:25:04.568Z,18.65
2018-08-31T08:27:33.320Z,18.71
2018-08-31T08:30:01.799Z,18.77
2018-08-31T08:32:30.257Z,18.87
2018-08-31T08:34:59.369Z,18.93
2018-08-31T08:37:28.038Z,19.01
2018-08-31T08:39:56.525Z,19.05
2018-08-31T08:42:25.749Z,19.09
2018-08-31T08:44:54.438Z,19.14
2018-08-31T08:47:22.941Z,19.13
2018-08-31T08:49:51.802Z,19.07
2018-08-31T08:52:21.217Z,19.02
2018-08-31T08:54:50.279Z,18.98
2018-08-31T08:57:19.439Z,18.94
2018-08-31T08:59:49.626Z,18.87
2018-08-31T09:02:18.090Z,18.84
2018-08-31T09:04:46.686Z,18.80
2018-08-31T09:07:17.073Z,18.75
2018-08-31T09:09:46.369Z,18.72
2018-08-31T09:12:15.245Z,18.71
2018-08-31T09:14:43.698Z,18.72
2018-08-31T09:17:12.132Z,18.71
2018-08-31T09:19:40.926Z,18.73
2018-08-31T09:22:09.389Z,18.73
2018-08-31T09:24:37.991Z,18.76
2018-08-31T09:27:07.104Z,18.79
2018-08-31T09:29:35.693Z,18.83
2018-08-31T09:32:09.544Z,18.85
2018-08-31T09:34:42.442Z,18.87
2018-08-31T09:37:10.952Z,18.89
2018-08-31T09:39:39.481Z,18.88
2018-08-31T09:42:08.642Z,18.90
2018-08-31T09:44:37.408Z,18.92
2018-08-31T09:47:06.704Z,18.97
2018-08-31T09:49:35.333Z,18.98
2018-08-31T09:52:03.807Z,19.00
2018-08-31T09:54:32.438Z,19.02
2018-08-31T09:57:00.961Z,19.01
2018-08-31T09:59:29.409Z,19.00
2018-08-31T10:02:04.169Z,19.03
2018-08-31T10:04:32.746Z,19.03
2018-08-31T10:07:01.216Z,19.02
2018-08-31T10:09:29.841Z,19.00
2018-08-31T10:11:58.269Z,18.95
2018-08-31T10:14:26.733Z,18.92
2018-08-31T10:16:55.489Z,18.89
2018-08-31T10:19:24.138Z,18.91
2018-08-31T10:21:52.582Z,18.89
2018-08-31T10:24:21.647Z,18.87
2018-08-31T10:26:50.358Z,18.89
2018-08-31T10:29:18.780Z,18.92
2018-08-31T10:31:47.587Z,18.96
2018-08-31T10:34:16.034Z,19.02
2018-08-31T10:36:44.493Z,19.12
2018-08-31T10:39:14.542Z,19.21
2018-08-31T10:41:43.026Z,19.28
2018-08-31T10:44:11.652Z,19.36
2018-08-31T10:46:40.751Z,19.45
2018-08-31T10:49:09.197Z,19.58
2018-08-31T10:51:38.025Z,19.70
2018-08-31T10:54:06.922Z,19.81
2018-08-31T10:56:35.700Z,19.90
2018-08-31T10:59:04.163Z,19.92
2018-08-31T11:01:32.721Z,19.92
2018-08-31T11:04:01.246Z,19.93
2018-08-31T11:06:29.694Z,19.88
2018-08-31T11:08:58.774Z,19.88
2018-08-31T11:11:27.239Z,19.86
2018-08-31T11:13:55.689Z,19.95
2018-08-31T11:16:24.231Z,20.04
2018-08-31T11:18:52.719Z,20.07
2018-08-31T11:21:21.165Z,20.10
2018-08-31T11:23:49.966Z,20.09
2018-08-31T11:26:19.457Z,19.96
2018-08-31T11:28:48.714Z,19.81
2018-08-31T11:31:17.237Z,19.78
2018-08-31T11:33:45.681Z,19.71
2018-08-31T11:36:14.110Z,19.66
2018-08-31T11:38:42.766Z,19.62
2018-08-31T11:41:11.201Z,19.61
2018-08-31T11:43:39.756Z,19.60
2018-08-31T11:46:09.458Z,19.56
2018-08-31T11:48:44.652Z,19.48
2018-08-31T11:51:13.590Z,19.48
2018-08-31T11:53:42.182Z,19.42
2018-08-31T11:56:10.729Z,19.37
2018-08-31T11:58:39.553Z,19.33
2018-08-31T12:01:08.205Z,19.32
2018-08-31T12:03:36.610Z,19.28
2018-08-31T12:06:05.254Z,19.26
2018-08-31T12:08:33.731Z,19.24
2018-08-31T12:11:02.219Z,19.25
2018-08-31T12:13:30.801Z,19.26
2018-08-31T12:15:59.264Z,19.23
2018-08-31T12:18:27.733Z,19.22
2018-08-31T12:20:56.844Z,19.19
2018-08-31T12:23:25.312Z,19.15
2018-08-31T12:25:53.804Z,19.11
2018-08-31T12:28:22.638Z,19.08
2018-08-31T12:30:51.201Z,19.05
2018-08-31T12:33:20.352Z,19.02
2018-08-31T12:35:49.236Z,19.02
2018-08-31T12:38:17.693Z,19.00
2018-08-31T12:40:46.377Z,18.98
2018-08-31T12:43:14.921Z,18.97
2018-08-31T12:45:43.411Z,18.94
2018-08-31T12:48:12.337Z,18.94
2018-08-31T12:50:41.640Z,18.91
2018-08-31T12:53:10.090Z,18.89
2018-08-31T12:55:38.519Z,18.87
2018-08-31T12:58:07.293Z,18.87
2018-08-31T13:00:35.719Z,18.85
2018-08-31T13:03:04.235Z,18.78
2018-08-31T13:05:33.061Z,18.72
2018-08-31T13:08:01.581Z,18.68
2018-08-31T13:10:30.078Z,18.64
2018-08-31T13:12:58.772Z,18.58
2018-08-31T13:15:27.210Z,18.58
2018-08-31T13:17:55.676Z,18.59
2018-08-31T13:20:24.478Z,18.60
2018-08-31T13:22:52.921Z,18.57
2018-08-31T13:25:21.418Z,18.58
2018-08-31T13:27:50.210Z,18.58
2018-08-31T13:30:18.690Z,18.59
2018-08-31T13:32:47.153Z,18.58
2018-08-31T13:35:16.446Z,18.55
2018-08-31T13:37:44.960Z,18.53
2018-08-31T13:40:13.434Z,18.50
2018-08-31T13:42:42.188Z,18.47
2018-08-31T13:45:10.709Z,18.47
2018-08-31T13:47:39.166Z,18.46
2018-08-31T13:50:07.910Z,18.45
2018-08-31T13:52:36.555Z,18.44
2018-08-31T13:55:05.074Z,18.44
2018-08-31T13:57:34.098Z,18.39
2018-08-31T14:00:02.537Z,18.34
2018-08-31T14:02:31.019Z,18.32
2018-08-31T14:04:59.745Z,18.33
2018-08-31T14:07:28.161Z,18.31
2018-08-31T14:09:57.107Z,18.31
2018-08-31T14:12:25.905Z,18.28
2018-08-31T14:14:54.337Z,18.29
2018-08-31T14:17:22.857Z,18.29
2018-08-31T14:19:51.430Z,18.31
2018-08-31T14:22:19.879Z,18.30
2018-08-31T14:24:48.673Z,18.28
2018-08-31T14:27:17.610Z,18.26
2018-08-31T14:29:46.166Z,18.23
2018-08-31T14:32:14.541Z,18.22
2018-08-31T14:34:43.353Z,18.21
2018-08-31T14:37:11.805Z,18.18
2018-08-31T14:39:40.264Z,18.15
2018-08-31T14:42:09.018Z,18.13
2018-08-31T14:44:37.457Z,18.11
2018-08-31T14:47:06.013Z,18.10
2018-08-31T14:49:35.730Z,18.10
2018-08-31T14:52:04.146Z,18.09
2018-08-31T14:54:32.760Z,18.04
2018-08-31T14:57:01.715Z,18.03
2018-08-31T14:59:30.208Z,18.04
2018-08-31T15:01:58.709Z,18.05
2018-08-31T15:04:28.013Z,18.02
2018-08-31T15:06:56.524Z,17.99
2018-08-31T15:09:25.029Z,17.96
2018-08-31T15:11:54.181Z,17.91
2018-08-31T15:14:22.605Z,17.87
2018-08-31T15:16:51.034Z,17.82
2018-08-31T15:19:20.326Z,17.78
2018-08-31T15:21:48.778Z,17.77
2018-08-31T15:24:17.210Z,17.73
2018-08-31T15:26:46.076Z,17.71
2018-08-31T15:29:14.504Z,17.68
2018-08-31T15:31:42.954Z,17.66
2018-08-31T15:34:11.915Z,17.62
2018-08-31T15:36:40.359Z,17.61
2018-08-31T15:39:09.783Z,17.56
2018-08-31T15:41:38.340Z,17.57
2018-08-31T15:44:06.877Z,17.57
2018-08-31T15:46:35.317Z,17.58
2018-08-31T15:49:03.868Z,17.56
2018-08-31T15:51:32.347Z,17.49
2018-08-31T15:54:00.779Z,17.46
2018-08-31T15:56:29.588Z,17.44
2018-08-31T15:58:58.035Z,17.39
2018-08-31T16:01:26.515Z,17.35
2018-08-31T16:03:55.612Z,17.33
2018-08-31T16:06:24.081Z,17.31
2018-08-31T16:08:52.545Z,17.30
2018-08-31T16:11:21.201Z,17.30
2018-08-31T16:13:49.878Z,17.30
2018-08-31T16:16:18.525Z,17.27
2018-08-31T16:18:47.217Z,17.25
2018-08-31T16:21:15.705Z,17.23
2018-08-31T16:23:44.153Z,17.22
2018-08-31T16:26:12.965Z,17.20
2018-08-31T16:28:41.419Z,17.19
2018-08-31T16:31:09.881Z,17.17
2018-08-31T16:33:38.398Z,17.13
2018-08-31T16:36:06.854Z,17.10
2018-08-31T16:38:35.285Z,17.06
2018-08-31T16:41:03.833Z,17.04
2018-08-31T16:43:32.283Z,17.01
2018-08-31T16:46:00.716Z,16.99
2018-08-31T16:48:29.269Z,16.97
2018-08-31T16:50:57.701Z,16.96
2018-08-31T16:53:26.131Z,16.95
2018-08-31T16:55:54.869Z,16.93
2018-08-31T16:58:23.630Z,16.92
2018-08-31T17:00:52.109Z,16.89
2018-08-31T17:03:20.671Z,16.85
2018-08-31T17:05:49.197Z,16.84
2018-08-31T17:08:17.630Z,16.82
2018-08-31T17:10:46.192Z,16.79
2018-08-31T17:13:14.630Z,16.76
2018-08-31T17:15:43.227Z,16.74
2018-08-31T17:18:12.053Z,16.69
2018-08-31T17:20:40.534Z,16.67
2018-08-31T17:23:09.038Z,16.65
2018-08-31T17:25:37.709Z,16.63
2018-08-31T17:28:11.376Z,16.62
2018-08-31T17:30:39.973Z,16.63
2018-08-31T17:33:13.681Z,16.63
2018-08-31T17:35:47.645Z,16.62
2018-08-31T17:38:16.221Z,16.63
2018-08-31T17:40:44.665Z,16.63
2018-08-31T17:43:13.160Z,16.62
2018-08-31T17:45:41.755Z,16.60
2018-08-31T17:48:10.269Z,16.60
2018-08-31T17:50:38.757Z,16.61
2018-08-31T17:53:07.797Z,16.60
2018-08-31T17:55:36.276Z,16.62
2018-08-31T17:58:04.917Z,16.60
2018-08-31T18:00:33.778Z,16.61
2018-08-31T18:03:02.232Z,16.63
2018-08-31T18:05:30.742Z,16.62
2018-08-31T18:07:59.289Z,16.63
2018-08-31T18:10:27.734Z,16.62
2018-08-31T18:12:56.214Z,16.61
2018-08-31T18:15:24.966Z,16.60
2018-08-31T18:17:53.473Z,16.59
2018-08-31T18:20:21.959Z,16.59
2018-08-31T18:22:51.601Z,16.57
2018-08-31T18:25:20.898Z,16.55
2018-08-31T18:27:49.509Z,16.53
2018-08-31T18:30:18.117Z,16.50
2018-08-31T18:32:46.598Z,16.47
2018-08-31T18:35:15.360Z,16.46
2018-08-31T18:37:43.893Z,16.43
2018-08-31T18:40:12.365Z,16.40
2018-08-31T18:42:40.845Z,16.40
2018-08-31T18:45:09.358Z,16.38
2018-08-31T18:47:37.826Z,16.35
2018-08-31T18:50:06.374Z,16.35
2018-08-31T18:52:35.098Z,16.34
2018-08-31T18:55:03.506Z,16.33
2018-08-31T18:57:32.157Z,16.32
2018-08-31T19:00:00.724Z,16.31
2018-08-31T19:02:29.337Z,16.29
2018-08-31T19:04:57.802Z,16.28
2018-08-31T19:07:26.726Z,16.26
2018-08-31T19:09:55.185Z,16.23
2018-08-31T19:12:23.688Z,15.69
2018-08-31T19:14:52.430Z,16.20
2018-08-31T19:17:20.944Z,16.16
2018-08-31T19:19:49.811Z,16.14
2018-08-31T19:22:18.905Z,16.14
2018-08-31T19:24:47.384Z,16.11
2018-08-31T19:27:16.645Z,16.10
2018-08-31T19:29:45.613Z,16.09
2018-08-31T19:32:14.067Z,16.09
2018-08-31T19:34:42.685Z,16.09
2018-08-31T19:37:11.402Z,16.07
2018-08-31T19:39:39.873Z,16.08
2018-08-31T19:42:08.523Z,16.08
2018-08-31T19:44:37.165Z,16.10
2018-08-31T19:47:05.663Z,16.10
2018-08-31T19:49:34.313Z,16.11
2018-08-31T19:52:09.599Z,16.11
2018-08-31T19:54:38.131Z,16.10
2018-08-31T19:57:06.684Z,16.10
2018-08-31T19:59:35.326Z,16.10
2018-08-31T20:02:03.829Z,16.09
2018-08-31T20:04:32.540Z,16.09
2018-08-31T20:07:01.582Z,16.08
2018-08-31T20:09:30.070Z,16.08
2018-08-31T20:11:58.509Z,16.07
2018-08-31T20:14:27.411Z,16.05
2018-08-31T20:16:56.054Z,16.03
2018-08-31T20:19:24.632Z,16.00
2018-08-31T20:21:53.202Z,16.00
2018-08-31T20:24:21.721Z,15.98
2018-08-31T20:26:50.237Z,15.96
2018-08-31T20:29:18.797Z,15.93
2018-08-31T20:31:47.362Z,15.91
2018-08-31T20:34:15.830Z,15.89
2018-08-31T20:36:44.437Z,15.87
2018-08-31T20:39:13.444Z,15.84
2018-08-31T20:41:42.177Z,15.83
2018-08-31T20:44:10.832Z,15.81
2018-08-31T20:46:39.368Z,15.79
2018-08-31T20:49:07.814Z,15.76
2018-08-31T20:51:37.090Z,15.74
2018-08-31T20:54:05.663Z,15.69
2018-08-31T20:56:34.120Z,15.67
2018-08-31T20:59:02.570Z,15.66
2018-08-31T21:01:31.039Z,15.65
2018-08-31T21:03:59.521Z,15.61
2018-08-31T21:06:28.446Z,15.57
2018-08-31T21:08:57.477Z,15.54
2018-08-31T21:11:25.957Z,15.51
2018-08-31T21:13:54.473Z,15.51
2018-08-31T21:16:22.921Z,15.51
2018-08-31T21:18:51.381Z,15.50
2018-08-31T21:21:19.930Z,15.52
2018-08-31T21:23:48.622Z,15.51
2018-08-31T21:26:17.088Z,15.54
2018-08-31T21:28:45.864Z,15.56
2018-08-31T21:31:14.436Z,15.58
2018-08-31T21:33:42.877Z,15.62
2018-08-31T21:36:11.417Z,15.67
2018-08-31T21:38:39.917Z,15.69
2018-08-31T21:41:08.381Z,15.71
2018-08-31T21:43:36.946Z,15.73
2018-08-31T21:46:05.627Z,15.72
2018-08-31T21:48:34.093Z,15.74
2018-08-31T21:51:02.713Z,15.75
2018-08-31T21:53:31.365Z,15.77
2018-08-31T21:55:59.851Z,15.78
2018-08-31T21:58:28.381Z,15.79
2018-08-31T22:01:02.347Z,15.81
2018-08-31T22:03:30.864Z,15.82
2018-08-31T22:05:59.321Z,15.82
2018-08-31T22:08:28.149Z,15.84
2018-08-31T22:10:57.069Z,15.85
2018-08-31T22:13:25.504Z,15.86
2018-08-31T22:15:53.962Z,15.87
2018-08-31T22:18:22.484Z,15.86
2018-08-31T22:20:50.921Z,15.86
2018-08-31T22:23:20.481Z,15.85
2018-08-31T22:25:49.699Z,15.83
2018-08-31T22:28:18.199Z,15.84
2018-08-31T22:30:46.703Z,15.85
2018-08-31T22:33:21.857Z,15.84
2018-08-31T22:35:50.408Z,15.84
2018-08-31T22:38:19.116Z,15.85
2018-08-31T22:40:47.607Z,15.87
2018-08-31T22:43:16.146Z,15.85
2018-08-31T22:45:44.579Z,15.87
2018-08-31T22:48:13.099Z,15.86
2018-08-31T22:50:41.719Z,15.85
2018-08-31T22:53:10.149Z,15.83
2018-08-31T22:55:38.697Z,15.82
2018-08-31T22:58:07.205Z,15.78
2018-08-31T23:00:35.701Z,15.77
2018-08-31T23:03:04.720Z,15.74
2018-08-31T23:05:33.279Z,15.73
2018-08-31T23:08:01.745Z,15.72
2018-08-31T23:10:30.629Z,15.68
2018-08-31T23:12:59.324Z,15.67
2018-08-31T23:15:27.809Z,15.66
2018-08-31T23:17:56.256Z,15.65
2018-08-31T23:20:24.746Z,15.65
2018-08-31T23:22:57.329Z,15.66
2018-08-31T23:25:31.407Z,15.67
2018-08-31T23:28:00.081Z,15.67
2018-08-31T23:30:28.515Z,15.66
2018-08-31T23:32:57.157Z,15.64
2018-08-31T23:35:32.386Z,15.64
2018-08-31T23:38:00.837Z,15.64
2018-08-31T23:40:30.018Z,15.66
2018-08-31T23:42:58.525Z,15.67
2018-08-31T23:45:27.153Z,15.67
2018-08-31T23:47:55.610Z,15.69
2018-08-31T23:50:24.490Z,15.68
2018-08-31T23:52:53.253Z,15.68
2018-08-31T23:55:21.720Z,15.70
2018-08-31T23:57:50.560Z,15.69
